sensor_id;sensor_type;location;lat;lon;timestamp;P1;durP1;ratioP1;P2;durP2;ratioP2
209;SDS011;90;48.810;9.120;2023-03-05T00:00:13;42.10;;;16.95;;
209;SDS011;90;48.810;9.120;2023-03-05T00:02:41;40.83;;;18.15;;
209;SDS011;90;48.810;9.120;2023-03-05T00:05:09;39.83;;;17.33;;
209;SDS011;90;48.810;9.120;2023-03-05T00:07:38;45.20;;;17.05;;
209;SDS011;90;48.810;9.120;2023-03-05T00:10:06;35.47;;;16.05;;
209;SDS011;90;48.810;9.120;2023-03-05T00:12:33;41.13;;;17.00;;
209;SDS011;90;48.810;9.120;2023-03-05T00:15:00;32.33;;;15.77;;
209;SDS011;90;48.810;9.120;2023-03-05T00:17:28;36.35;;;16.55;;
209;SDS011;90;48.810;9.120;2023-03-05T00:19:56;43.60;;;17.85;;
209;SDS011;90;48.810;9.120;2023-03-05T00:22:24;37.47;;;18.02;;
209;SDS011;90;48.810;9.120;2023-03-05T00:24:53;31.92;;;15.55;;
209;SDS011;90;48.810;9.120;2023-03-05T00:27:20;39.80;;;18.63;;
209;SDS011;90;48.810;9.120;2023-03-05T00:29:48;37.33;;;16.08;;
209;SDS011;90;48.810;9.120;2023-03-05T00:32:15;34.83;;;16.60;;
209;SDS011;90;48.810;9.120;2023-03-05T00:34:42;37.78;;;17.13;;
209;SDS011;90;48.810;9.120;2023-03-05T00:37:09;40.67;;;17.13;;
209;SDS011;90;48.810;9.120;2023-03-05T00:39:36;42.05;;;17.25;;
209;SDS011;90;48.810;9.120;2023-03-05T00:42:05;41.25;;;17.73;;
209;SDS011;90;48.810;9.120;2023-03-05T00:44:32;42.50;;;18.40;;
209;SDS011;90;48.810;9.120;2023-03-05T00:46:59;37.17;;;17.00;;
209;SDS011;90;48.810;9.120;2023-03-05T00:49:26;45.58;;;18.70;;
209;SDS011;90;48.810;9.120;2023-03-05T00:51:53;45.97;;;18.83;;
209;SDS011;90;48.810;9.120;2023-03-05T00:54:20;45.95;;;18.35;;
209;SDS011;90;48.810;9.120;2023-03-05T00:56:47;43.33;;;17.90;;
209;SDS011;90;48.810;9.120;2023-03-05T00:59:16;45.80;;;18.92;;
209;SDS011;90;48.810;9.120;2023-03-05T01:01:43;45.92;;;18.17;;
209;SDS011;90;48.810;9.120;2023-03-05T01:04:10;46.72;;;17.95;;
209;SDS011;90;48.810;9.120;2023-03-05T01:06:37;36.78;;;16.38;;
209;SDS011;90;48.810;9.120;2023-03-05T01:09:06;35.90;;;15.95;;
209;SDS011;90;48.810;9.120;2023-03-05T01:11:33;46.28;;;17.13;;
209;SDS011;90;48.810;9.120;2023-03-05T01:14:01;35.92;;;16.08;;
209;SDS011;90;48.810;9.120;2023-03-05T01:16:29;41.15;;;16.50;;
209;SDS011;90;48.810;9.120;2023-03-05T01:18:56;36.30;;;17.10;;
209;SDS011;90;48.810;9.120;2023-03-05T01:21:23;37.25;;;16.90;;
209;SDS011;90;48.810;9.120;2023-03-05T01:23:50;34.33;;;15.80;;
209;SDS011;90;48.810;9.120;2023-03-05T01:26:17;40.67;;;16.73;;
209;SDS011;90;48.810;9.120;2023-03-05T01:28:44;38.03;;;16.30;;
209;SDS011;90;48.810;9.120;2023-03-05T01:31:11;41.13;;;16.95;;
209;SDS011;90;48.810;9.120;2023-03-05T01:33:39;40.00;;;16.20;;
209;SDS011;90;48.810;9.120;2023-03-05T01:36:07;45.15;;;16.50;;
209;SDS011;90;48.810;9.120;2023-03-05T01:38:37;42.80;;;16.17;;
209;SDS011;90;48.810;9.120;2023-03-05T01:41:04;40.08;;;16.45;;
209;SDS011;90;48.810;9.120;2023-03-05T01:43:31;33.90;;;15.48;;
209;SDS011;90;48.810;9.120;2023-03-05T01:49:07;38.05;;;16.48;;
209;SDS011;90;48.810;9.120;2023-03-05T01:51:44;34.83;;;15.57;;
209;SDS011;90;48.810;9.120;2023-03-05T01:54:20;34.58;;;15.50;;
209;SDS011;90;48.810;9.120;2023-03-05T01:56:51;37.20;;;16.20;;
209;SDS011;90;48.810;9.120;2023-03-05T01:59:21;39.50;;;16.70;;
209;SDS011;90;48.810;9.120;2023-03-05T02:01:50;37.38;;;15.77;;
209;SDS011;90;48.810;9.120;2023-03-05T02:04:22;33.53;;;14.98;;
209;SDS011;90;48.810;9.120;2023-03-05T02:06:58;42.13;;;16.98;;
209;SDS011;90;48.810;9.120;2023-03-05T02:09:26;38.47;;;16.02;;
209;SDS011;90;48.810;9.120;2023-03-05T02:11:54;38.92;;;16.85;;
209;SDS011;90;48.810;9.120;2023-03-05T02:14:22;34.42;;;15.80;;
209;SDS011;90;48.810;9.120;2023-03-05T02:16:49;34.28;;;16.70;;
209;SDS011;90;48.810;9.120;2023-03-05T02:19:17;35.28;;;16.00;;
209;SDS011;90;48.810;9.120;2023-03-05T02:21:46;34.70;;;14.30;;
209;SDS011;90;48.810;9.120;2023-03-05T02:24:14;32.63;;;14.90;;
209;SDS011;90;48.810;9.120;2023-03-05T02:26:43;30.80;;;14.15;;
209;SDS011;90;48.810;9.120;2023-03-05T02:29:11;31.83;;;14.52;;
209;SDS011;90;48.810;9.120;2023-03-05T02:31:42;35.95;;;14.50;;
209;SDS011;90;48.810;9.120;2023-03-05T02:34:09;38.20;;;15.35;;
209;SDS011;90;48.810;9.120;2023-03-05T02:36:36;33.80;;;14.70;;
209;SDS011;90;48.810;9.120;2023-03-05T02:39:05;35.15;;;15.02;;
209;SDS011;90;48.810;9.120;2023-03-05T02:41:33;34.45;;;14.10;;
209;SDS011;90;48.810;9.120;2023-03-05T02:44:00;33.80;;;14.30;;
209;SDS011;90;48.810;9.120;2023-03-05T02:46:27;35.95;;;15.38;;
209;SDS011;90;48.810;9.120;2023-03-05T02:48:54;35.28;;;14.73;;
209;SDS011;90;48.810;9.120;2023-03-05T02:51:21;33.47;;;13.40;;
209;SDS011;90;48.810;9.120;2023-03-05T02:53:48;31.63;;;13.57;;
209;SDS011;90;48.810;9.120;2023-03-05T02:56:17;30.95;;;13.07;;
209;SDS011;90;48.810;9.120;2023-03-05T02:58:44;33.08;;;14.35;;
209;SDS011;90;48.810;9.120;2023-03-05T03:01:11;38.28;;;14.18;;
209;SDS011;90;48.810;9.120;2023-03-05T03:03:38;38.92;;;13.30;;
209;SDS011;90;48.810;9.120;2023-03-05T03:06:06;32.00;;;13.02;;
209;SDS011;90;48.810;9.120;2023-03-05T03:08:33;32.03;;;13.27;;
209;SDS011;90;48.810;9.120;2023-03-05T03:11:04;33.10;;;12.85;;
209;SDS011;90;48.810;9.120;2023-03-05T03:13:33;31.85;;;12.90;;
209;SDS011;90;48.810;9.120;2023-03-05T03:16:01;31.40;;;12.80;;
209;SDS011;90;48.810;9.120;2023-03-05T03:18:29;30.02;;;13.27;;
209;SDS011;90;48.810;9.120;2023-03-05T03:20:56;39.58;;;13.75;;
209;SDS011;90;48.810;9.120;2023-03-05T03:23:23;30.73;;;13.02;;
209;SDS011;90;48.810;9.120;2023-03-05T03:25:50;32.25;;;12.23;;
209;SDS011;90;48.810;9.120;2023-03-05T03:28:17;38.58;;;13.25;;
209;SDS011;90;48.810;9.120;2023-03-05T03:30:45;31.90;;;13.00;;
209;SDS011;90;48.810;9.120;2023-03-05T03:33:12;31.35;;;14.00;;
209;SDS011;90;48.810;9.120;2023-03-05T03:35:39;35.88;;;13.10;;
209;SDS011;90;48.810;9.120;2023-03-05T03:38:06;32.67;;;12.27;;
209;SDS011;90;48.810;9.120;2023-03-05T03:40:33;33.20;;;13.27;;
209;SDS011;90;48.810;9.120;2023-03-05T03:43:01;30.65;;;13.48;;
209;SDS011;90;48.810;9.120;2023-03-05T03:45:28;35.80;;;13.55;;
209;SDS011;90;48.810;9.120;2023-03-05T03:47:56;29.80;;;12.10;;
209;SDS011;90;48.810;9.120;2023-03-05T03:50:23;38.75;;;14.45;;
209;SDS011;90;48.810;9.120;2023-03-05T03:52:50;37.25;;;14.00;;
209;SDS011;90;48.810;9.120;2023-03-05T03:55:18;29.80;;;12.50;;
209;SDS011;90;48.810;9.120;2023-03-05T03:57:45;30.33;;;13.07;;
209;SDS011;90;48.810;9.120;2023-03-05T04:00:12;32.08;;;13.55;;
209;SDS011;90;48.810;9.120;2023-03-05T04:02:40;26.40;;;11.65;;
209;SDS011;90;48.810;9.120;2023-03-05T04:05:08;31.40;;;12.10;;
209;SDS011;90;48.810;9.120;2023-03-05T04:07:36;34.22;;;12.85;;
209;SDS011;90;48.810;9.120;2023-03-05T04:10:03;22.05;;;11.38;;
209;SDS011;90;48.810;9.120;2023-03-05T04:12:30;30.25;;;13.05;;
209;SDS011;90;48.810;9.120;2023-03-05T04:14:57;32.13;;;13.05;;
209;SDS011;90;48.810;9.120;2023-03-05T04:17:24;33.42;;;12.00;;
209;SDS011;90;48.810;9.120;2023-03-05T04:19:51;28.92;;;12.88;;
209;SDS011;90;48.810;9.120;2023-03-05T04:22:20;30.33;;;11.70;;
209;SDS011;90;48.810;9.120;2023-03-05T04:24:47;29.20;;;12.75;;
209;SDS011;90;48.810;9.120;2023-03-05T04:27:14;28.95;;;12.90;;
209;SDS011;90;48.810;9.120;2023-03-05T04:29:41;30.48;;;12.55;;
209;SDS011;90;48.810;9.120;2023-03-05T04:32:08;32.90;;;12.98;;
209;SDS011;90;48.810;9.120;2023-03-05T04:34:35;30.85;;;13.02;;
209;SDS011;90;48.810;9.120;2023-03-05T04:37:02;32.05;;;13.57;;
209;SDS011;90;48.810;9.120;2023-03-05T04:39:31;32.80;;;13.50;;
209;SDS011;90;48.810;9.120;2023-03-05T04:41:58;33.58;;;13.35;;
209;SDS011;90;48.810;9.120;2023-03-05T04:44:25;33.10;;;12.02;;
209;SDS011;90;48.810;9.120;2023-03-05T04:46:52;32.38;;;13.75;;
209;SDS011;90;48.810;9.120;2023-03-05T04:49:19;27.52;;;13.07;;
209;SDS011;90;48.810;9.120;2023-03-05T04:51:46;28.58;;;12.73;;
209;SDS011;90;48.810;9.120;2023-03-05T04:54:13;35.33;;;14.32;;
209;SDS011;90;48.810;9.120;2023-03-05T04:56:42;28.98;;;12.88;;
209;SDS011;90;48.810;9.120;2023-03-05T04:59:09;30.55;;;12.38;;
209;SDS011;90;48.810;9.120;2023-03-05T05:01:36;35.13;;;13.80;;
209;SDS011;90;48.810;9.120;2023-03-05T05:04:03;29.80;;;13.00;;
209;SDS011;90;48.810;9.120;2023-03-05T05:06:30;34.30;;;13.00;;
209;SDS011;90;48.810;9.120;2023-03-05T05:08:57;35.28;;;14.27;;
209;SDS011;90;48.810;9.120;2023-03-05T05:11:24;31.15;;;13.18;;
209;SDS011;90;48.810;9.120;2023-03-05T05:13:52;36.15;;;13.52;;
209;SDS011;90;48.810;9.120;2023-03-05T05:16:19;31.10;;;13.63;;
209;SDS011;90;48.810;9.120;2023-03-05T05:18:47;40.55;;;15.13;;
209;SDS011;90;48.810;9.120;2023-03-05T05:21:14;31.98;;;13.68;;
209;SDS011;90;48.810;9.120;2023-03-05T05:23:42;29.27;;;13.40;;
209;SDS011;90;48.810;9.120;2023-03-05T05:26:09;33.10;;;14.82;;
209;SDS011;90;48.810;9.120;2023-03-05T05:28:38;33.42;;;14.70;;
209;SDS011;90;48.810;9.120;2023-03-05T05:31:09;36.45;;;14.93;;
209;SDS011;90;48.810;9.120;2023-03-05T05:33:37;41.97;;;14.23;;
209;SDS011;90;48.810;9.120;2023-03-05T05:36:05;33.97;;;14.27;;
209;SDS011;90;48.810;9.120;2023-03-05T05:38:34;35.88;;;14.10;;
209;SDS011;90;48.810;9.120;2023-03-05T05:41:02;36.15;;;15.15;;
209;SDS011;90;48.810;9.120;2023-03-05T05:43:30;34.17;;;14.75;;
209;SDS011;90;48.810;9.120;2023-03-05T05:45:58;33.88;;;14.40;;
209;SDS011;90;48.810;9.120;2023-03-05T05:48:27;36.40;;;14.43;;
209;SDS011;90;48.810;9.120;2023-03-05T05:50:55;39.10;;;14.43;;
209;SDS011;90;48.810;9.120;2023-03-05T05:53:23;42.35;;;14.60;;
209;SDS011;90;48.810;9.120;2023-03-05T05:55:51;34.72;;;15.80;;
209;SDS011;90;48.810;9.120;2023-03-05T05:58:18;30.30;;;14.30;;
209;SDS011;90;48.810;9.120;2023-03-05T06:00:45;37.20;;;14.55;;
209;SDS011;90;48.810;9.120;2023-03-05T06:03:12;33.05;;;14.02;;
209;SDS011;90;48.810;9.120;2023-03-05T06:05:41;43.40;;;15.18;;
209;SDS011;90;48.810;9.120;2023-03-05T06:08:08;34.65;;;14.00;;
209;SDS011;90;48.810;9.120;2023-03-05T06:10:35;34.53;;;14.85;;
209;SDS011;90;48.810;9.120;2023-03-05T06:13:02;40.40;;;15.95;;
209;SDS011;90;48.810;9.120;2023-03-05T06:15:29;38.30;;;16.20;;
209;SDS011;90;48.810;9.120;2023-03-05T06:17:57;29.13;;;14.75;;
209;SDS011;90;48.810;9.120;2023-03-05T06:20:24;36.40;;;15.13;;
209;SDS011;90;48.810;9.120;2023-03-05T06:22:53;33.67;;;15.23;;
209;SDS011;90;48.810;9.120;2023-03-05T06:25:20;38.38;;;15.40;;
209;SDS011;90;48.810;9.120;2023-03-05T06:27:47;37.47;;;15.82;;
209;SDS011;90;48.810;9.120;2023-03-05T06:30:14;34.75;;;15.35;;
209;SDS011;90;48.810;9.120;2023-03-05T06:32:41;33.95;;;15.80;;
209;SDS011;90;48.810;9.120;2023-03-05T06:35:08;36.92;;;16.42;;
209;SDS011;90;48.810;9.120;2023-03-05T06:37:35;37.95;;;15.40;;
209;SDS011;90;48.810;9.120;2023-03-05T06:40:03;37.35;;;16.38;;
209;SDS011;90;48.810;9.120;2023-03-05T06:44:59;48.40;;;17.70;;
209;SDS011;90;48.810;9.120;2023-03-05T06:47:26;41.42;;;16.45;;
209;SDS011;90;48.810;9.120;2023-03-05T06:49:53;40.47;;;16.25;;
209;SDS011;90;48.810;9.120;2023-03-05T06:52:20;38.88;;;15.63;;
209;SDS011;90;48.810;9.120;2023-03-05T06:54:47;40.50;;;16.30;;
209;SDS011;90;48.810;9.120;2023-03-05T06:57:15;35.05;;;15.30;;
209;SDS011;90;48.810;9.120;2023-03-05T06:59:42;41.60;;;16.70;;
209;SDS011;90;48.810;9.120;2023-03-05T07:02:09;37.00;;;16.63;;
209;SDS011;90;48.810;9.120;2023-03-05T07:04:37;43.45;;;16.08;;
209;SDS011;90;48.810;9.120;2023-03-05T07:07:04;40.40;;;16.55;;
209;SDS011;90;48.810;9.120;2023-03-05T07:09:32;43.95;;;16.05;;
209;SDS011;90;48.810;9.120;2023-03-05T07:11:59;47.65;;;17.42;;
209;SDS011;90;48.810;9.120;2023-03-05T07:14:27;38.60;;;16.70;;
209;SDS011;90;48.810;9.120;2023-03-05T07:16:55;45.30;;;17.75;;
209;SDS011;90;48.810;9.120;2023-03-05T07:19:22;45.45;;;18.73;;
209;SDS011;90;48.810;9.120;2023-03-05T07:21:49;39.47;;;16.55;;
209;SDS011;90;48.810;9.120;2023-03-05T07:24:16;31.63;;;14.82;;
209;SDS011;90;48.810;9.120;2023-03-05T07:26:43;38.88;;;17.48;;
209;SDS011;90;48.810;9.120;2023-03-05T07:29:10;38.45;;;17.15;;
209;SDS011;90;48.810;9.120;2023-03-05T07:31:38;43.65;;;17.88;;
209;SDS011;90;48.810;9.120;2023-03-05T07:34:05;38.38;;;16.30;;
209;SDS011;90;48.810;9.120;2023-03-05T07:36:32;43.63;;;17.13;;
209;SDS011;90;48.810;9.120;2023-03-05T07:39:00;41.30;;;17.77;;
209;SDS011;90;48.810;9.120;2023-03-05T07:41:28;38.88;;;16.77;;
209;SDS011;90;48.810;9.120;2023-03-05T07:43:55;38.92;;;16.73;;
209;SDS011;90;48.810;9.120;2023-03-05T07:46:23;40.47;;;16.17;;
209;SDS011;90;48.810;9.120;2023-03-05T07:48:53;40.88;;;16.65;;
209;SDS011;90;48.810;9.120;2023-03-05T07:51:21;38.40;;;17.33;;
209;SDS011;90;48.810;9.120;2023-03-05T07:53:50;33.38;;;15.00;;
209;SDS011;90;48.810;9.120;2023-03-05T07:56:22;41.22;;;17.77;;
209;SDS011;90;48.810;9.120;2023-03-05T07:58:52;28.02;;;10.90;;
209;SDS011;90;48.810;9.120;2023-03-05T08:01:19;37.28;;;17.00;;
209;SDS011;90;48.810;9.120;2023-03-05T08:03:46;42.75;;;18.10;;
209;SDS011;90;48.810;9.120;2023-03-05T08:06:15;42.70;;;16.80;;
209;SDS011;90;48.810;9.120;2023-03-05T08:08:42;43.83;;;17.30;;
209;SDS011;90;48.810;9.120;2023-03-05T08:11:09;42.50;;;16.60;;
209;SDS011;90;48.810;9.120;2023-03-05T08:13:38;40.13;;;16.95;;
209;SDS011;90;48.810;9.120;2023-03-05T08:16:06;35.90;;;16.48;;
209;SDS011;90;48.810;9.120;2023-03-05T08:18:37;49.80;;;17.33;;
209;SDS011;90;48.810;9.120;2023-03-05T08:21:05;38.97;;;16.65;;
209;SDS011;90;48.810;9.120;2023-03-05T08:23:33;38.72;;;16.67;;
209;SDS011;90;48.810;9.120;2023-03-05T08:26:01;36.20;;;15.88;;
209;SDS011;90;48.810;9.120;2023-03-05T08:28:37;37.63;;;17.05;;
209;SDS011;90;48.810;9.120;2023-03-05T08:31:07;39.53;;;16.92;;
209;SDS011;90;48.810;9.120;2023-03-05T08:33:34;37.70;;;16.35;;
209;SDS011;90;48.810;9.120;2023-03-05T08:36:04;40.63;;;17.02;;
209;SDS011;90;48.810;9.120;2023-03-05T08:38:34;42.15;;;18.13;;
209;SDS011;90;48.810;9.120;2023-03-05T08:41:01;38.33;;;16.90;;
209;SDS011;90;48.810;9.120;2023-03-05T08:43:28;35.75;;;16.95;;
209;SDS011;90;48.810;9.120;2023-03-05T08:45:58;42.75;;;16.95;;
209;SDS011;90;48.810;9.120;2023-03-05T08:48:26;39.42;;;15.57;;
209;SDS011;90;48.810;9.120;2023-03-05T08:50:53;33.70;;;15.30;;
209;SDS011;90;48.810;9.120;2023-03-05T08:53:21;35.95;;;17.05;;
209;SDS011;90;48.810;9.120;2023-03-05T08:55:56;43.17;;;17.35;;
209;SDS011;90;48.810;9.120;2023-03-05T08:58:24;47.75;;;19.15;;
209;SDS011;90;48.810;9.120;2023-03-05T09:00:51;40.60;;;17.75;;
209;SDS011;90;48.810;9.120;2023-03-05T09:03:18;43.15;;;17.58;;
209;SDS011;90;48.810;9.120;2023-03-05T09:05:45;41.17;;;17.35;;
209;SDS011;90;48.810;9.120;2023-03-05T09:08:12;38.85;;;17.60;;
209;SDS011;90;48.810;9.120;2023-03-05T09:10:40;43.72;;;18.08;;
209;SDS011;90;48.810;9.120;2023-03-05T09:13:09;42.38;;;17.30;;
209;SDS011;90;48.810;9.120;2023-03-05T09:15:36;40.88;;;17.15;;
209;SDS011;90;48.810;9.120;2023-03-05T09:18:04;40.63;;;17.33;;
209;SDS011;90;48.810;9.120;2023-03-05T09:20:33;42.83;;;17.00;;
209;SDS011;90;48.810;9.120;2023-03-05T09:23:01;39.47;;;17.05;;
209;SDS011;90;48.810;9.120;2023-03-05T09:25:28;36.78;;;17.05;;
209;SDS011;90;48.810;9.120;2023-03-05T09:27:55;34.67;;;16.02;;
209;SDS011;90;48.810;9.120;2023-03-05T09:30:24;35.08;;;15.90;;
209;SDS011;90;48.810;9.120;2023-03-05T09:32:51;35.42;;;15.95;;
209;SDS011;90;48.810;9.120;2023-03-05T09:35:18;34.80;;;15.60;;
209;SDS011;90;48.810;9.120;2023-03-05T09:37:45;35.70;;;14.93;;
209;SDS011;90;48.810;9.120;2023-03-05T09:40:13;36.92;;;16.10;;
209;SDS011;90;48.810;9.120;2023-03-05T09:42:44;41.47;;;16.70;;
209;SDS011;90;48.810;9.120;2023-03-05T09:45:26;37.47;;;16.55;;
209;SDS011;90;48.810;9.120;2023-03-05T09:48:00;30.90;;;14.77;;
209;SDS011;90;48.810;9.120;2023-03-05T09:50:37;35.47;;;15.32;;
209;SDS011;90;48.810;9.120;2023-03-05T09:53:10;40.67;;;16.83;;
209;SDS011;90;48.810;9.120;2023-03-05T09:55:49;43.40;;;16.80;;
209;SDS011;90;48.810;9.120;2023-03-05T09:58:24;40.75;;;16.70;;
209;SDS011;90;48.810;9.120;2023-03-05T10:01:02;42.58;;;17.17;;
209;SDS011;90;48.810;9.120;2023-03-05T10:03:35;39.92;;;16.58;;
209;SDS011;90;48.810;9.120;2023-03-05T10:06:11;45.10;;;18.38;;
209;SDS011;90;48.810;9.120;2023-03-05T10:08:47;57.20;;;20.35;;
209;SDS011;90;48.810;9.120;2023-03-05T10:11:38;40.60;;;16.95;;
209;SDS011;90;48.810;9.120;2023-03-05T10:14:13;43.20;;;17.83;;
209;SDS011;90;48.810;9.120;2023-03-05T10:16:52;42.58;;;16.70;;
209;SDS011;90;48.810;9.120;2023-03-05T10:19:43;36.58;;;16.08;;
209;SDS011;90;48.810;9.120;2023-03-05T10:22:32;32.35;;;15.52;;
209;SDS011;90;48.810;9.120;2023-03-05T10:25:13;36.92;;;16.90;;
209;SDS011;90;48.810;9.120;2023-03-05T10:28:03;38.58;;;16.15;;
209;SDS011;90;48.810;9.120;2023-03-05T10:30:43;35.83;;;16.13;;
209;SDS011;90;48.810;9.120;2023-03-05T10:33:24;38.47;;;17.38;;
209;SDS011;90;48.810;9.120;2023-03-05T10:39:19;36.17;;;17.05;;
209;SDS011;90;48.810;9.120;2023-03-05T10:42:10;40.13;;;16.75;;
209;SDS011;90;48.810;9.120;2023-03-05T10:44:48;44.97;;;17.90;;
209;SDS011;90;48.810;9.120;2023-03-05T10:47:29;44.20;;;17.40;;
209;SDS011;90;48.810;9.120;2023-03-05T10:50:14;39.58;;;16.33;;
209;SDS011;90;48.810;9.120;2023-03-05T10:52:44;44.05;;;16.30;;
209;SDS011;90;48.810;9.120;2023-03-05T10:55:18;39.45;;;18.55;;
209;SDS011;90;48.810;9.120;2023-03-05T10:57:59;41.15;;;17.35;;
209;SDS011;90;48.810;9.120;2023-03-05T11:00:38;42.85;;;17.98;;
209;SDS011;90;48.810;9.120;2023-03-05T11:03:08;45.35;;;18.70;;
209;SDS011;90;48.810;9.120;2023-03-05T11:05:45;44.85;;;18.10;;
209;SDS011;90;48.810;9.120;2023-03-05T11:08:22;42.42;;;19.20;;
209;SDS011;90;48.810;9.120;2023-03-05T11:11:07;44.10;;;18.67;;
209;SDS011;90;48.810;9.120;2023-03-05T11:13:51;45.13;;;18.67;;
209;SDS011;90;48.810;9.120;2023-03-05T11:16:23;41.83;;;17.70;;
209;SDS011;90;48.810;9.120;2023-03-05T11:22:04;41.08;;;17.25;;
209;SDS011;90;48.810;9.120;2023-03-05T11:24:36;49.00;;;18.35;;
209;SDS011;90;48.810;9.120;2023-03-05T11:27:40;41.85;;;18.23;;
209;SDS011;90;48.810;9.120;2023-03-05T11:30:24;39.75;;;18.30;;
209;SDS011;90;48.810;9.120;2023-03-05T11:33:08;45.25;;;18.88;;
209;SDS011;90;48.810;9.120;2023-03-05T11:35:44;42.03;;;19.65;;
209;SDS011;90;48.810;9.120;2023-03-05T11:38:17;43.40;;;19.17;;
209;SDS011;90;48.810;9.120;2023-03-05T11:40:46;49.10;;;20.05;;
209;SDS011;90;48.810;9.120;2023-03-05T11:43:15;53.35;;;20.88;;
209;SDS011;90;48.810;9.120;2023-03-05T11:45:54;46.70;;;21.23;;
209;SDS011;90;48.810;9.120;2023-03-05T11:48:31;47.50;;;19.15;;
209;SDS011;90;48.810;9.120;2023-03-05T11:51:06;48.75;;;22.08;;
209;SDS011;90;48.810;9.120;2023-03-05T11:53:42;39.55;;;17.42;;
209;SDS011;90;48.810;9.120;2023-03-05T11:56:13;39.83;;;17.02;;
209;SDS011;90;48.810;9.120;2023-03-05T11:58:46;37.97;;;16.30;;
209;SDS011;90;48.810;9.120;2023-03-05T12:01:19;36.75;;;16.70;;
209;SDS011;90;48.810;9.120;2023-03-05T12:03:51;35.95;;;15.82;;
209;SDS011;90;48.810;9.120;2023-03-05T12:06:27;37.60;;;16.40;;
209;SDS011;90;48.810;9.120;2023-03-05T12:09:04;33.83;;;14.95;;
209;SDS011;90;48.810;9.120;2023-03-05T12:11:38;31.42;;;14.93;;
209;SDS011;90;48.810;9.120;2023-03-05T12:14:08;41.35;;;16.50;;
209;SDS011;90;48.810;9.120;2023-03-05T12:16:49;42.33;;;16.02;;
209;SDS011;90;48.810;9.120;2023-03-05T12:19:28;27.83;;;15.02;;
209;SDS011;90;48.810;9.120;2023-03-05T12:22:14;29.90;;;14.57;;
209;SDS011;90;48.810;9.120;2023-03-05T12:25:23;34.10;;;15.00;;
209;SDS011;90;48.810;9.120;2023-03-05T12:27:56;34.72;;;15.95;;
209;SDS011;90;48.810;9.120;2023-03-05T12:33:34;37.88;;;16.20;;
209;SDS011;90;48.810;9.120;2023-03-05T12:45:24;40.47;;;17.60;;
209;SDS011;90;48.810;9.120;2023-03-05T12:51:13;41.85;;;17.73;;
209;SDS011;90;48.810;9.120;2023-03-05T12:54:17;41.90;;;16.30;;
209;SDS011;90;48.810;9.120;2023-03-05T12:57:14;33.97;;;15.18;;
209;SDS011;90;48.810;9.120;2023-03-05T13:00:03;35.00;;;16.00;;
209;SDS011;90;48.810;9.120;2023-03-05T13:02:39;33.95;;;15.63;;
209;SDS011;90;48.810;9.120;2023-03-05T13:05:30;41.63;;;16.05;;
209;SDS011;90;48.810;9.120;2023-03-05T13:08:24;34.03;;;15.10;;
209;SDS011;90;48.810;9.120;2023-03-05T13:11:02;36.88;;;15.40;;
209;SDS011;90;48.810;9.120;2023-03-05T13:13:38;37.25;;;16.05;;
209;SDS011;90;48.810;9.120;2023-03-05T13:16:23;34.95;;;15.57;;
209;SDS011;90;48.810;9.120;2023-03-05T13:19:00;33.03;;;15.80;;
209;SDS011;90;48.810;9.120;2023-03-05T13:21:31;37.30;;;15.10;;
209;SDS011;90;48.810;9.120;2023-03-05T13:24:00;33.90;;;14.55;;
209;SDS011;90;48.810;9.120;2023-03-05T13:26:34;35.28;;;14.75;;
209;SDS011;90;48.810;9.120;2023-03-05T13:29:13;33.05;;;14.80;;
209;SDS011;90;48.810;9.120;2023-03-05T13:31:44;28.52;;;13.10;;
209;SDS011;90;48.810;9.120;2023-03-05T13:34:17;34.65;;;14.40;;
209;SDS011;90;48.810;9.120;2023-03-05T13:36:50;32.00;;;15.07;;
209;SDS011;90;48.810;9.120;2023-03-05T13:39:21;27.52;;;12.90;;
209;SDS011;90;48.810;9.120;2023-03-05T13:42:00;35.83;;;14.77;;
209;SDS011;90;48.810;9.120;2023-03-05T13:44:29;29.88;;;14.38;;
209;SDS011;90;48.810;9.120;2023-03-05T13:47:13;38.20;;;15.98;;
209;SDS011;90;48.810;9.120;2023-03-05T13:49:42;29.95;;;14.57;;
209;SDS011;90;48.810;9.120;2023-03-05T13:52:11;29.17;;;14.68;;
209;SDS011;90;48.810;9.120;2023-03-05T13:54:48;35.70;;;14.10;;
209;SDS011;90;48.810;9.120;2023-03-05T13:57:30;34.00;;;15.73;;
209;SDS011;90;48.810;9.120;2023-03-05T14:00:00;31.38;;;14.93;;
209;SDS011;90;48.810;9.120;2023-03-05T14:02:32;34.00;;;15.35;;
209;SDS011;90;48.810;9.120;2023-03-05T14:05:00;41.78;;;16.95;;
209;SDS011;90;48.810;9.120;2023-03-05T14:07:30;41.72;;;16.20;;
209;SDS011;90;48.810;9.120;2023-03-05T14:09:59;43.38;;;15.88;;
209;SDS011;90;48.810;9.120;2023-03-05T14:12:29;37.72;;;15.60;;
209;SDS011;90;48.810;9.120;2023-03-05T14:15:15;36.10;;;15.32;;
209;SDS011;90;48.810;9.120;2023-03-05T14:17:49;33.88;;;15.07;;
209;SDS011;90;48.810;9.120;2023-03-05T14:20:20;33.17;;;15.55;;
209;SDS011;90;48.810;9.120;2023-03-05T14:22:52;35.85;;;15.98;;
209;SDS011;90;48.810;9.120;2023-03-05T14:25:27;27.60;;;13.80;;
209;SDS011;90;48.810;9.120;2023-03-05T14:27:58;34.67;;;15.30;;
209;SDS011;90;48.810;9.120;2023-03-05T14:30:26;34.60;;;15.48;;
209;SDS011;90;48.810;9.120;2023-03-05T14:32:58;38.13;;;15.35;;
209;SDS011;90;48.810;9.120;2023-03-05T14:35:29;38.35;;;17.35;;
209;SDS011;90;48.810;9.120;2023-03-05T14:38:02;31.38;;;15.20;;
209;SDS011;90;48.810;9.120;2023-03-05T14:40:29;33.85;;;15.55;;
209;SDS011;90;48.810;9.120;2023-03-05T14:43:05;38.88;;;16.52;;
209;SDS011;90;48.810;9.120;2023-03-05T14:45:39;42.05;;;17.90;;
209;SDS011;90;48.810;9.120;2023-03-05T14:48:14;36.55;;;16.45;;
209;SDS011;90;48.810;9.120;2023-03-05T14:50:44;42.42;;;19.25;;
209;SDS011;90;48.810;9.120;2023-03-05T14:53:18;40.80;;;18.25;;
209;SDS011;90;48.810;9.120;2023-03-05T14:55:48;43.28;;;17.95;;
209;SDS011;90;48.810;9.120;2023-03-05T14:58:23;47.70;;;18.58;;
209;SDS011;90;48.810;9.120;2023-03-05T15:00:52;47.28;;;19.05;;
209;SDS011;90;48.810;9.120;2023-03-05T15:03:24;40.75;;;19.30;;
209;SDS011;90;48.810;9.120;2023-03-05T15:05:57;44.67;;;18.90;;
209;SDS011;90;48.810;9.120;2023-03-05T15:08:25;41.63;;;17.38;;
209;SDS011;90;48.810;9.120;2023-03-05T15:10:54;53.13;;;20.05;;
209;SDS011;90;48.810;9.120;2023-03-05T15:13:22;46.22;;;20.02;;
209;SDS011;90;48.810;9.120;2023-03-05T15:16:06;44.20;;;18.75;;
209;SDS011;90;48.810;9.120;2023-03-05T15:18:42;40.72;;;18.90;;
209;SDS011;90;48.810;9.120;2023-03-05T15:21:09;42.00;;;17.77;;
209;SDS011;90;48.810;9.120;2023-03-05T15:23:37;44.47;;;19.27;;
209;SDS011;90;48.810;9.120;2023-03-05T15:26:06;43.58;;;19.02;;
209;SDS011;90;48.810;9.120;2023-03-05T15:28:38;46.15;;;17.20;;
209;SDS011;90;48.810;9.120;2023-03-05T15:31:06;43.42;;;17.95;;
209;SDS011;90;48.810;9.120;2023-03-05T15:33:36;40.97;;;18.98;;
209;SDS011;90;48.810;9.120;2023-03-05T15:36:05;39.85;;;18.15;;
209;SDS011;90;48.810;9.120;2023-03-05T15:38:34;44.28;;;19.25;;
209;SDS011;90;48.810;9.120;2023-03-05T15:41:05;46.95;;;19.75;;
209;SDS011;90;48.810;9.120;2023-03-05T15:43:33;36.38;;;17.90;;
209;SDS011;90;48.810;9.120;2023-03-05T15:46:04;39.90;;;18.00;;
209;SDS011;90;48.810;9.120;2023-03-05T15:48:35;44.88;;;18.23;;
209;SDS011;90;48.810;9.120;2023-03-05T15:51:06;49.92;;;20.58;;
209;SDS011;90;48.810;9.120;2023-03-05T15:53:33;46.03;;;19.65;;
209;SDS011;90;48.810;9.120;2023-03-05T15:56:01;42.92;;;18.45;;
209;SDS011;90;48.810;9.120;2023-03-05T15:58:31;37.53;;;17.08;;
209;SDS011;90;48.810;9.120;2023-03-05T16:00:58;42.00;;;18.13;;
209;SDS011;90;48.810;9.120;2023-03-05T16:03:27;39.80;;;17.60;;
209;SDS011;90;48.810;9.120;2023-03-05T16:05:57;37.17;;;17.85;;
209;SDS011;90;48.810;9.120;2023-03-05T16:08:26;38.40;;;16.55;;
209;SDS011;90;48.810;9.120;2023-03-05T16:10:54;42.97;;;18.08;;
209;SDS011;90;48.810;9.120;2023-03-05T16:13:21;38.85;;;16.88;;
209;SDS011;90;48.810;9.120;2023-03-05T16:15:53;32.50;;;16.27;;
209;SDS011;90;48.810;9.120;2023-03-05T16:18:22;38.70;;;17.35;;